Time;durP1;ratioP1;P1;durP2;ratioP2;P2;SDS_P1;SDS_P2;PMS_P1;PMS_P2;Temp;Humidity;BMP_temperature;BMP_pressure;BME280_temperature;BME280_humidity;BME280_pressure;Samples;Min_cycle;Max_cycle;Signal;HPM_P1;HPM_P2
2024/03/12 00:00:15;;;;;;;4.70;3.70;;;7.90;99.90;;;;;;4976473;28;20308;-80
2024/03/12 00:02:44;;;;;;;4.57;3.70;;;7.90;99.90;;;;;;4959067;28;20509;-80
2024/03/12 00:05:14;;;;;;;4.17;3.67;;;8.00;99.90;;;;;;4976470;28;20283;-80
2024/03/12 00:07:44;;;;;;;4.97;3.57;;;7.90;99.90;;;;;;4976560;28;20252;-80
2024/03/12 00:10:15;;;;;;;5.33;3.80;;;7.80;99.90;;;;;;4976405;28;20622;-80
2024/03/12 00:12:43;;;;;;;5.70;3.70;;;7.70;99.90;;;;;;4976497;28;20167;-80
2024/03/12 00:15:10;;;;;;;4.67;3.70;;;7.70;99.90;;;;;;4975768;28;20186;-80
2024/03/12 00:17:39;;;;;;;4.77;3.73;;;7.80;99.90;;;;;;4976143;28;20169;-80
2024/03/12 00:20:15;;;;;;;6.07;4.23;;;7.80;99.90;;;;;;4958912;28;20231;-80
2024/03/12 00:22:47;;;;;;;4.60;3.60;;;7.90;99.90;;;;;;4976273;28;20160;-80
2024/03/12 00:25:16;;;;;;;3.97;3.10;;;7.90;99.90;;;;;;4976025;28;20497;-80
2024/03/12 00:27:43;;;;;;;5.20;3.23;;;7.90;99.90;;;;;;4976110;28;20195;-80
2024/03/12 00:30:10;;;;;;;5.40;3.63;;;7.90;99.90;;;;;;4975748;28;20169;-80
2024/03/12 00:32:38;;;;;;;7.17;4.17;;;7.60;99.90;;;;;;4958371;28;20260;-80
2024/03/12 00:35:05;;;;;;;4.83;3.70;;;7.40;99.90;;;;;;4975915;28;20180;-81
2024/03/12 00:37:32;;;;;;;5.83;4.03;;;7.30;99.90;;;;;;4975776;28;20176;-80
2024/03/12 00:39:58;;;;;;;11.20;4.10;;;7.30;99.90;;;;;;4975876;28;20168;-80
2024/03/12 00:42:23;;;;;;;5.03;3.80;;;7.30;99.90;;;;;;4975885;28;20671;-80
2024/03/12 00:44:49;;;;;;;5.23;3.50;;;7.50;99.90;;;;;;4958268;28;20646;-80
2024/03/12 00:47:16;;;;;;;4.70;3.60;;;7.40;99.90;;;;;;4958263;28;20199;-80
2024/03/12 00:49:41;;;;;;;4.63;3.67;;;7.40;99.90;;;;;;4975672;28;20180;-79
2024/03/12 00:52:07;;;;;;;5.80;3.50;;;7.50;99.90;;;;;;4975723;28;20514;-80
2024/03/12 00:54:35;;;;;;;4.73;3.90;;;7.50;99.90;;;;;;4975111;28;20694;-80
2024/03/12 00:57:05;;;;;;;5.47;3.17;;;7.60;99.90;;;;;;4975387;28;20169;-80
2024/03/12 00:59:31;;;;;;;6.30;4.17;;;7.40;99.90;;;;;;4958367;28;20176;-80
2024/03/12 01:01:57;;;;;;;5.10;4.13;;;7.30;99.90;;;;;;4975259;28;20175;-81
2024/03/12 01:04:23;;;;;;;5.40;4.00;;;7.30;99.90;;;;;;4975638;28;20272;-80
2024/03/12 01:06:51;;;;;;;5.60;3.83;;;7.30;99.90;;;;;;4975308;28;20671;-80
2024/03/12 01:09:17;;;;;;;5.83;3.67;;;7.20;99.90;;;;;;4975283;28;20157;-80
2024/03/12 01:11:44;;;;;;;4.80;3.90;;;7.10;99.90;;;;;;4975395;28;20511;-82
2024/03/12 01:14:10;;;;;;;7.83;4.40;;;7.10;99.90;;;;;;4975485;28;20196;-80
2024/03/12 01:16:36;;;;;;;4.37;3.47;;;7.10;99.90;;;;;;4974879;28;20620;-80
2024/03/12 01:19:07;;;;;;;5.10;4.30;;;7.00;99.90;;;;;;4975311;28;20185;-81
2024/03/12 01:21:34;;;;;;;6.33;3.80;;;7.00;99.90;;;;;;4975203;28;20203;-80
2024/03/12 01:24:07;;;;;;;7.43;4.17;;;7.00;99.90;;;;;;4957821;28;20492;-80
2024/03/12 01:26:34;;;;;;;6.80;3.77;;;6.90;99.90;;;;;;4974953;28;20196;-79
2024/03/12 01:29:02;;;;;;;5.73;3.90;;;6.80;99.90;;;;;;4975212;28;20179;-79
2024/03/12 01:31:28;;;;;;;5.77;4.07;;;6.70;99.90;;;;;;4974776;28;20180;-82
2024/03/12 01:33:54;;;;;;;5.43;4.37;;;6.70;99.90;;;;;;4974985;28;20224;-81
2024/03/12 01:36:20;;;;;;;5.37;3.90;;;6.60;99.90;;;;;;4974832;28;20179;-80
2024/03/12 01:38:54;;;;;;;4.97;3.67;;;6.60;99.90;;;;;;4974915;28;20245;-80
2024/03/12 01:41:20;;;;;;;5.17;3.90;;;6.80;99.90;;;;;;4958127;28;20519;-81
2024/03/12 01:43:59;;;;;;;4.60;3.50;;;6.90;99.90;;;;;;4975136;28;20176;-80
2024/03/12 01:46:28;;;;;;;5.20;4.23;;;6.90;99.90;;;;;;4974394;28;20208;-80
2024/03/12 01:48:56;;;;;;;6.00;4.27;;;6.80;99.90;;;;;;4974868;28;20593;-80
2024/03/12 01:51:21;;;;;;;4.63;3.77;;;6.80;99.90;;;;;;4975165;28;20177;-80
2024/03/12 01:53:47;;;;;;;7.53;4.30;;;6.80;99.90;;;;;;4975056;28;20173;-80
2024/03/12 01:56:13;;;;;;;4.80;3.50;;;6.70;99.90;;;;;;4957382;28;20237;-80
2024/03/12 01:58:40;;;;;;;5.80;3.97;;;6.60;99.90;;;;;;4974822;28;20208;-81
2024/03/12 02:01:06;;;;;;;7.40;3.67;;;6.50;99.90;;;;;;4957028;28;20175;-80
2024/03/12 02:03:33;;;;;;;6.57;3.70;;;6.40;99.90;;;;;;4974573;28;20181;-80
2024/03/12 02:05:59;;;;;;;4.40;3.40;;;6.30;99.90;;;;;;4974715;28;20204;-79
2024/03/12 02:08:25;;;;;;;4.30;3.63;;;6.20;99.90;;;;;;4961031;28;20327;-80
2024/03/12 02:10:51;;;;;;;5.97;4.10;;;6.00;99.90;;;;;;4978728;28;20608;-80
2024/03/12 02:13:16;;;;;;;5.07;4.03;;;6.00;99.90;;;;;;4961358;28;20250;-80
2024/03/12 02:15:43;;;;;;;6.27;4.20;;;6.00;99.90;;;;;;4978039;28;20624;-79
2024/03/12 02:18:09;;;;;;;6.00;4.53;;;6.00;99.90;;;;;;4978602;28;20624;-80
2024/03/12 02:20:36;;;;;;;6.00;4.00;;;6.00;99.90;;;;;;4978506;28;20179;-80
2024/03/12 02:23:02;;;;;;;6.50;4.23;;;6.00;99.90;;;;;;4978395;28;20196;-79
2024/03/12 02:25:27;;;;;;;6.73;4.40;;;6.10;99.90;;;;;;4978293;28;20204;-79
2024/03/12 02:27:53;;;;;;;5.60;3.87;;;6.20;99.90;;;;;;4978323;28;20177;-80
2024/03/12 02:30:19;;;;;;;5.47;4.23;;;6.20;99.90;;;;;;4978139;28;20225;-79
2024/03/12 02:32:47;;;;;;;5.77;4.30;;;6.10;99.90;;;;;;4978033;28;20224;-80
2024/03/12 02:35:15;;;;;;;6.00;4.50;;;6.10;99.90;;;;;;4978140;28;20255;-81
2024/03/12 02:37:41;;;;;;;7.37;4.17;;;6.00;99.90;;;;;;4978116;28;20181;-79
2024/03/12 02:40:13;;;;;;;5.27;4.30;;;6.00;99.90;;;;;;4978325;28;20224;-80
2024/03/12 02:42:41;;;;;;;7.17;4.70;;;5.90;99.90;;;;;;4978202;28;20177;-80
2024/03/12 02:45:07;;;;;;;6.50;4.70;;;6.00;99.90;;;;;;4960139;28;20564;-80
2024/03/12 02:47:32;;;;;;;6.13;4.57;;;6.10;99.90;;;;;;4960452;28;20181;-80
2024/03/12 02:49:59;;;;;;;7.23;4.87;;;6.20;99.90;;;;;;4977886;28;20181;-80
2024/03/12 02:52:25;;;;;;;8.30;4.97;;;6.30;99.90;;;;;;4960577;28;20220;-80
2024/03/12 02:54:50;;;;;;;6.70;4.60;;;6.30;99.90;;;;;;4960597;28;20224;-82
2024/03/12 02:57:17;;;;;;;8.40;4.43;;;6.20;99.90;;;;;;4977624;28;20176;-81
2024/03/12 02:59:43;;;;;;;6.17;4.30;;;6.20;99.90;;;;;;4960596;28;20491;-80
2024/03/12 03:02:12;;;;;;;6.87;4.70;;;6.10;99.90;;;;;;4960363;28;20192;-80
2024/03/12 03:04:39;;;;;;;7.17;4.30;;;6.00;99.90;;;;;;4977365;28;20249;-80
2024/03/12 03:07:05;;;;;;;7.40;4.80;;;6.00;99.90;;;;;;4977550;28;20185;-80
2024/03/12 03:09:31;;;;;;;8.63;4.27;;;6.10;99.90;;;;;;5438491;23;20618;-86
2024/03/12 03:11:59;;;;;;;7.17;4.67;;;6.20;99.90;;;;;;4999801;28;20253;-87
2024/03/12 03:14:25;;;;;;;7.03;4.73;;;6.20;99.90;;;;;;4999709;28;20179;-87
2024/03/12 03:16:53;;;;;;;7.13;4.37;;;6.30;99.90;;;;;;4999129;28;20249;-86
2024/03/12 03:19:20;;;;;;;5.50;4.20;;;6.20;99.90;;;;;;4987424;28;20192;-86
2024/03/12 03:21:45;;;;;;;9.73;4.67;;;6.20;99.90;;;;;;4980245;28;20583;-86
2024/03/12 03:24:11;;;;;;;7.07;4.63;;;6.20;99.90;;;;;;4980194;28;20184;-86
2024/03/12 03:26:37;;;;;;;7.07;4.60;;;6.20;99.90;;;;;;4979882;28;20310;-86
2024/03/12 03:29:03;;;;;;;6.60;4.37;;;6.30;99.90;;;;;;4979925;28;20183;-86
2024/03/12 03:31:29;;;;;;;6.37;4.40;;;6.30;99.90;;;;;;4979902;28;20188;-87
2024/03/12 03:33:58;;;;;;;6.27;4.53;;;6.20;99.90;;;;;;4980112;28;20267;-86
2024/03/12 03:36:27;;;;;;;7.17;4.73;;;6.20;99.90;;;;;;4979763;28;20184;-86
2024/03/12 03:38:53;;;;;;;7.60;5.00;;;6.40;99.90;;;;;;4980241;28;20187;-87
2024/03/12 03:41:19;;;;;;;7.43;4.30;;;6.20;99.90;;;;;;4979740;28;20188;-86
2024/03/12 03:43:45;;;;;;;5.17;4.03;;;6.00;99.90;;;;;;4980170;28;20735;-86
2024/03/12 03:46:11;;;;;;;8.20;4.47;;;6.00;99.90;;;;;;4979287;28;20302;-86
2024/03/12 03:48:36;;;;;;;5.40;4.20;;;5.80;99.90;;;;;;4985982;28;20527;-87
2024/03/12 03:51:03;;;;;;;5.47;4.40;;;5.80;99.90;;;;;;4999275;28;20193;-86
2024/03/12 03:53:28;;;;;;;5.70;4.33;;;5.70;99.90;;;;;;4999176;28;20171;-86
2024/03/12 03:55:57;;;;;;;6.57;4.33;;;5.90;99.90;;;;;;4998786;28;20191;-85
2024/03/12 03:58:23;;;;;;;6.90;4.30;;;5.80;99.90;;;;;;4999107;28;20595;-86
2024/03/12 04:00:50;;;;;;;6.20;4.47;;;5.90;99.90;;;;;;4998834;28;20261;-86
2024/03/12 04:03:17;;;;;;;6.00;4.30;;;5.90;99.90;;;;;;4999104;28;20210;-86
2024/03/12 04:05:43;;;;;;;7.90;4.23;;;5.90;99.90;;;;;;4998743;28;20211;-86
2024/03/12 04:08:08;;;;;;;5.30;4.50;;;5.90;99.90;;;;;;4998742;28;20186;-85
2024/03/12 04:10:34;;;;;;;6.40;4.37;;;6.00;99.90;;;;;;4998561;28;20568;-86
2024/03/12 04:13:00;;;;;;;5.73;4.53;;;5.90;99.90;;;;;;4998906;28;20210;-86
2024/03/12 04:15:29;;;;;;;6.63;4.37;;;5.90;99.90;;;;;;4998496;28;20184;-86
2024/03/12 04:17:55;;;;;;;7.43;4.93;;;5.90;99.90;;;;;;4998057;28;20234;-87
2024/03/12 04:20:21;;;;;;;6.07;4.73;;;5.90;99.90;;;;;;4979190;28;20534;-86
2024/03/12 04:22:47;;;;;;;6.20;4.90;;;5.80;99.90;;;;;;4996492;28;20180;-87
2024/03/12 04:25:15;;;;;;;6.17;4.70;;;5.70;99.90;;;;;;4978746;28;20212;-84
2024/03/12 04:27:41;;;;;;;6.57;4.70;;;5.70;99.90;;;;;;4978905;28;20212;-85
2024/03/12 04:30:11;;;;;;;7.73;4.77;;;5.70;99.90;;;;;;4978352;28;20184;-86
2024/03/12 04:32:40;;;;;;;8.43;5.17;;;5.70;99.90;;;;;;4996112;28;20172;-86
2024/03/12 04:35:12;;;;;;;6.97;5.27;;;5.60;99.90;;;;;;4978801;28;20196;-86
2024/03/12 04:37:38;;;;;;;7.13;4.80;;;5.60;99.90;;;;;;4978800;28;20211;-87
2024/03/12 04:40:06;;;;;;;8.47;4.93;;;5.70;99.90;;;;;;4978763;28;20701;-87
2024/03/12 04:42:43;;;;;;;6.37;4.57;;;5.70;99.90;;;;;;4978593;28;20519;-87
2024/03/12 04:45:09;;;;;;;7.87;5.13;;;5.60;99.90;;;;;;4978586;28;20207;-88
2024/03/12 04:47:40;;;;;;;9.73;5.30;;;5.60;99.90;;;;;;4978483;28;20615;-86
2024/03/12 04:50:07;;;;;;;7.97;4.70;;;5.60;99.90;;;;;;4996901;28;20195;-88
2024/03/12 04:52:33;;;;;;;6.50;4.93;;;5.70;99.90;;;;;;4998057;28;20626;-88
2024/03/12 04:54:59;;;;;;;6.30;5.07;;;5.60;99.90;;;;;;4997978;28;20167;-88
2024/03/12 04:57:25;;;;;;;11.10;5.63;;;5.60;99.90;;;;;;4997948;28;20258;-87
2024/03/12 04:59:51;;;;;;;7.67;4.87;;;5.60;99.90;;;;;;4997928;28;20179;-87
2024/03/12 05:02:16;;;;;;;6.57;4.80;;;5.60;99.90;;;;;;5015042;28;20507;-87
2024/03/12 05:04:42;;;;;;;5.90;4.70;;;5.50;99.90;;;;;;4997738;28;20195;-86
2024/03/12 05:07:08;;;;;;;5.77;4.40;;;5.40;99.90;;;;;;4997844;28;20561;-87
2024/03/12 05:09:34;;;;;;;7.53;4.60;;;5.30;99.90;;;;;;4997544;28;20254;-86
2024/03/12 05:11:59;;;;;;;8.10;5.17;;;5.20;99.90;;;;;;4997702;28;20214;-86
2024/03/12 05:14:25;;;;;;;6.63;4.83;;;5.30;99.90;;;;;;4997785;28;20266;-87
2024/03/12 05:16:51;;;;;;;7.33;4.60;;;5.20;99.90;;;;;;5015184;28;20171;-86
2024/03/12 05:19:17;;;;;;;6.93;5.10;;;5.30;99.90;;;;;;4985945;28;20179;-86
2024/03/12 05:21:43;;;;;;;8.70;4.97;;;5.30;99.90;;;;;;4978134;28;20626;-87
2024/03/12 05:24:09;;;;;;;8.63;5.33;;;5.30;99.90;;;;;;4978080;28;20214;-86
2024/03/12 05:26:43;;;;;;;8.17;4.80;;;5.30;99.90;;;;;;4977827;28;20435;-86
2024/03/12 05:29:12;;;;;;;7.00;4.83;;;5.20;99.90;;;;;;4978145;28;20222;-86
2024/03/12 05:31:39;;;;;;;7.57;4.73;;;5.30;99.90;;;;;;4977852;28;20186;-85
2024/03/12 05:34:27;;;;;;;8.17;5.30;;;5.30;99.90;;;;;;4977860;28;20180;-86
2024/03/12 05:37:02;;;;;;;6.87;4.87;;;5.30;99.90;;;;;;4977971;28;20172;-86
2024/03/12 05:39:47;;;;;;;8.47;5.10;;;5.40;99.90;;;;;;4977955;28;20186;-87
2024/03/12 05:50:26;;;;;;;7.57;5.10;;;5.40;99.90;;;;;;4995202;28;20175;-85
2024/03/12 05:52:53;;;;;;;8.67;5.50;;;5.40;99.90;;;;;;4977708;28;20183;-86
2024/03/12 05:55:21;;;;;;;7.43;5.30;;;5.50;99.90;;;;;;4977803;28;20211;-87
2024/03/12 05:57:46;;;;;;;8.83;5.40;;;5.50;99.90;;;;;;4977347;28;20183;-86
2024/03/12 06:00:13;;;;;;;6.50;5.27;;;5.50;99.90;;;;;;4977617;28;20180;-87
2024/03/12 06:02:41;;;;;;;6.30;4.93;;;5.60;99.90;;;;;;4977238;28;20263;-87
2024/03/12 06:05:08;;;;;;;7.20;5.00;;;5.70;99.90;;;;;;4977495;28;20270;-86
2024/03/12 06:07:35;;;;;;;7.13;5.23;;;5.70;99.90;;;;;;4994734;28;20190;-87
2024/03/12 06:10:00;;;;;;;7.17;5.10;;;5.80;99.90;;;;;;4977363;28;20670;-86
2024/03/12 06:12:26;;;;;;;7.90;5.20;;;5.80;99.90;;;;;;4977488;28;20191;-86
2024/03/12 06:14:52;;;;;;;5.83;4.70;;;5.80;99.90;;;;;;4977746;28;20180;-85
2024/03/12 06:17:18;;;;;;;9.33;5.10;;;5.90;99.90;;;;;;4977199;28;20596;-86
2024/03/12 06:19:43;;;;;;;8.40;5.27;;;5.90;99.90;;;;;;4977441;28;20258;-86
2024/03/12 06:22:09;;;;;;;9.53;5.13;;;6.00;99.90;;;;;;4977519;28;20181;-86
2024/03/12 06:24:39;;;;;;;7.13;5.37;;;6.00;99.90;;;;;;4994775;28;20227;-85
2024/03/12 06:27:05;;;;;;;7.73;4.83;;;6.10;99.90;;;;;;4977127;28;20211;-86
2024/03/12 06:29:31;;;;;;;8.17;5.27;;;6.10;99.90;;;;;;4977444;28;20702;-86
2024/03/12 06:31:57;;;;;;;8.30;5.60;;;6.10;99.90;;;;;;4976970;28;20331;-85
2024/03/12 06:34:26;;;;;;;10.60;6.00;;;6.20;99.90;;;;;;4976644;28;20265;-86
2024/03/12 06:36:57;;;;;;;9.63;5.60;;;6.20;99.90;;;;;;4977177;28;20176;-86
2024/03/12 06:39:31;;;;;;;9.23;5.67;;;6.20;99.90;;;;;;4977392;28;20180;-85
2024/03/12 06:42:07;;;;;;;8.87;5.27;;;6.30;99.90;;;;;;4977496;28;20319;-87
2024/03/12 06:44:36;;;;;;;6.50;5.33;;;6.30;99.90;;;;;;4977247;28;20167;-86
2024/03/12 06:47:01;;;;;;;8.70;5.53;;;6.40;99.90;;;;;;4976877;28;20297;-87
2024/03/12 06:49:28;;;;;;;8.83;4.93;;;6.40;99.90;;;;;;4994722;28;20211;-87
2024/03/12 06:51:53;;;;;;;7.27;5.23;;;6.50;99.90;;;;;;4977102;28;20267;-86
2024/03/12 06:54:21;;;;;;;8.53;5.40;;;6.60;99.90;;;;;;4980515;28;20259;-86
2024/03/12 06:56:47;;;;;;;8.13;5.60;;;6.60;99.90;;;;;;4980293;28;20180;-87
2024/03/12 06:59:16;;;;;;;7.60;5.20;;;6.60;99.90;;;;;;4980386;28;20206;-85
2024/03/12 07:01:42;;;;;;;10.03;5.57;;;6.70;99.90;;;;;;4998155;28;20184;-85
2024/03/12 07:04:09;;;;;;;7.97;5.83;;;6.70;99.90;;;;;;4980415;28;20690;-85
2024/03/12 07:06:38;;;;;;;9.17;5.47;;;6.80;99.90;;;;;;4980388;28;20709;-86
2024/03/12 07:09:15;;;;;;;11.37;6.03;;;6.80;99.90;;;;;;4980264;28;20227;-85
2024/03/12 07:11:41;;;;;;;9.57;5.10;;;6.90;99.90;;;;;;4997715;28;20164;-85
2024/03/12 07:14:23;;;;;;;8.33;5.60;;;6.90;99.90;;;;;;4980290;28;20658;-85
2024/03/12 07:16:52;;;;;;;7.70;5.90;;;6.90;99.90;;;;;;4979765;28;20182;-85
2024/03/12 07:19:17;;;;;;;8.20;5.40;;;7.00;99.90;;;;;;4980130;28;20184;-84
2024/03/12 07:21:43;;;;;;;8.10;5.50;;;7.00;99.90;;;;;;4997762;28;20665;-87
2024/03/12 07:24:12;;;;;;;8.63;5.90;;;7.00;99.90;;;;;;4980056;28;20203;-86
2024/03/12 07:26:38;;;;;;;10.40;6.33;;;7.00;99.90;;;;;;4980018;28;20242;-86
2024/03/12 07:29:06;;;;;;;8.10;5.23;;;7.10;99.90;;;;;;4980695;28;20176;-86
2024/03/12 07:31:39;;;;;;;7.53;5.80;;;7.20;99.90;;;;;;4979567;28;20611;-85
2024/03/12 07:34:05;;;;;;;8.60;6.20;;;7.20;99.90;;;;;;4980063;28;20468;-85
2024/03/12 07:36:34;;;;;;;9.40;6.07;;;7.20;99.90;;;;;;4977369;28;20588;-86
2024/03/12 07:39:08;;;;;;;11.93;6.30;;;7.20;99.90;;;;;;4978835;28;20203;-87
2024/03/12 07:41:35;;;;;;;7.63;5.87;;;7.20;99.90;;;;;;4978503;28;20207;-84
2024/03/12 07:44:00;;;;;;;7.83;5.77;;;7.30;99.90;;;;;;4978203;28;20183;-85
2024/03/12 07:46:26;;;;;;;8.33;5.70;;;7.30;99.90;;;;;;4982209;28;20215;-85
2024/03/12 07:48:53;;;;;;;8.60;5.77;;;7.40;99.90;;;;;;4979746;28;20196;-85
2024/03/12 07:51:18;;;;;;;8.90;6.13;;;7.50;99.90;;;;;;4979509;28;20223;-86
2024/03/12 07:53:44;;;;;;;8.80;6.70;;;7.60;99.90;;;;;;4980820;28;20234;-84
2024/03/12 07:56:14;;;;;;;8.87;6.23;;;7.70;99.90;;;;;;4981364;28;20219;-85
2024/03/12 07:58:40;;;;;;;8.67;6.80;;;7.80;99.90;;;;;;4982495;28;20273;-88
2024/03/12 08:01:07;;;;;;;8.20;5.73;;;7.90;99.90;;;;;;4977869;28;20192;-88
2024/03/12 08:03:36;;;;;;;8.83;6.30;;;8.00;99.90;;;;;;4981433;28;20179;-87
2024/03/12 08:06:03;;;;;;;7.40;5.97;;;8.00;99.90;;;;;;4977356;28;20243;-88
2024/03/12 08:08:29;;;;;;;8.10;6.33;;;8.10;99.90;;;;;;4978332;28;20219;-88
2024/03/12 08:10:59;;;;;;;8.70;6.10;;;8.20;99.90;;;;;;4985037;28;20231;-86
2024/03/12 08:13:25;;;;;;;9.87;6.13;;;8.30;99.90;;;;;;4986519;28;20301;-85
2024/03/12 08:15:51;;;;;;;10.87;6.43;;;8.30;99.90;;;;;;4983113;28;20187;-86
2024/03/12 08:18:16;;;;;;;7.97;6.13;;;8.40;99.90;;;;;;4979681;28;20650;-86
2024/03/12 08:20:42;;;;;;;8.63;6.37;;;8.50;99.90;;;;;;4985257;28;20271;-85
2024/03/12 08:23:09;;;;;;;8.30;6.23;;;8.50;99.90;;;;;;4982752;28;20230;-85
2024/03/12 08:25:35;;;;;;;8.27;5.80;;;8.50;99.90;;;;;;4982121;28;20666;-88
2024/03/12 08:28:01;;;;;;;7.47;6.00;;;8.50;99.90;;;;;;4986600;28;20202;-87
2024/03/12 08:30:27;;;;;;;7.87;6.10;;;8.50;99.90;;;;;;4984000;28;20187;-86
2024/03/12 08:32:53;;;;;;;7.37;5.60;;;8.50;99.90;;;;;;5001922;28;20202;-87
2024/03/12 08:35:18;;;;;;;9.47;5.93;;;8.50;99.90;;;;;;4982875;28;20195;-87
2024/03/12 08:37:44;;;;;;;9.10;6.13;;;8.50;99.90;;;;;;4977147;28;20207;-87
2024/03/12 08:40:14;;;;;;;9.17;6.27;;;8.60;99.90;;;;;;4983025;28;20262;-86
2024/03/12 08:42:40;;;;;;;9.57;6.23;;;8.60;99.90;;;;;;4979960;28;20758;-88
2024/03/12 08:45:12;;;;;;;10.00;6.38;;;8.60;99.90;;;;;;4985111;28;20206;-88
2024/03/12 08:47:38;;;;;;;9.00;6.68;;;8.60;99.90;;;;;;4980173;28;20195;-85
2024/03/12 08:50:05;;;;;;;8.68;6.38;;;8.60;99.90;;;;;;5001730;28;20269;-88
2024/03/12 08:52:30;;;;;;;9.55;6.50;;;8.70;99.90;;;;;;4983532;28;20191;-87
2024/03/12 08:54:56;;;;;;;9.48;6.88;;;8.80;99.90;;;;;;4986199;28;20191;-88
2024/03/12 08:57:22;;;;;;;9.20;7.27;;;8.80;99.90;;;;;;4979050;28;20619;-88
2024/03/12 08:59:47;;;;;;;12.50;6.97;;;8.80;99.90;;;;;;4980573;28;20187;-89
2024/03/12 09:02:14;;;;;;;9.87;7.17;;;8.80;99.90;;;;;;4977411;28;20187;-88
2024/03/12 09:04:40;;;;;;;10.50;6.87;;;8.90;99.90;;;;;;4983236;28;20322;-89
2024/03/12 09:07:07;;;;;;;10.77;6.80;;;9.00;99.90;;;;;;4975751;28;20228;-87
2024/03/12 09:09:32;;;;;;;10.43;7.90;;;9.10;99.90;;;;;;4974248;28;20299;-89
2024/03/12 09:11:58;;;;;;;11.60;7.57;;;9.00;99.90;;;;;;4977446;28;20666;-89
2024/03/12 09:14:26;;;;;;;10.10;7.22;;;9.00;99.90;;;;;;4975639;28;20239;-89
2024/03/12 09:16:52;;;;;;;11.20;8.00;;;9.00;99.90;;;;;;4975176;28;20189;-88
2024/03/12 09:19:18;;;;;;;11.07;7.17;;;9.00;99.90;;;;;;4978083;28;20235;-87
2024/03/12 09:21:44;;;;;;;12.00;8.82;;;9.10;99.90;;;;;;4977828;28;20187;-89
2024/03/12 09:24:09;;;;;;;12.90;7.47;;;9.10;99.90;;;;;;4975576;28;20631;-87
2024/03/12 09:26:36;;;;;;;9.90;7.65;;;9.10;99.90;;;;;;4974130;28;20216;-86
2024/03/12 09:29:02;;;;;;;11.23;8.88;;;9.10;99.90;;;;;;4974879;28;20191;-86
2024/03/12 09:31:28;;;;;;;12.52;8.65;;;9.10;99.90;;;;;;4974692;28;20192;-87
2024/03/12 09:33:54;;;;;;;11.20;8.18;;;9.10;99.90;;;;;;4978980;28;20521;-85
2024/03/12 09:36:20;;;;;;;9.93;8.07;;;9.20;99.90;;;;;;4974153;28;20196;-87
2024/03/12 09:38:50;;;;;;;10.05;8.00;;;9.10;99.90;;;;;;4974396;28;20192;-89
2024/03/12 09:41:16;;;;;;;11.38;8.07;;;9.10;99.90;;;;;;4976960;28;20196;-88
2024/03/12 09:43:44;;;;;;;11.93;9.18;;;9.10;99.90;;;;;;4978396;28;20218;-86
2024/03/12 09:46:15;;;;;;;13.63;8.63;;;9.10;99.90;;;;;;4975048;28;20212;-86
2024/03/12 09:48:42;;;;;;;15.73;9.93;;;9.10;99.90;;;;;;4974157;28;20266;-88
2024/03/12 09:51:08;;;;;;;12.48;10.00;;;9.10;99.90;;;;;;4974197;28;20275;-88
2024/03/12 09:53:36;;;;;;;16.85;9.98;;;9.10;99.90;;;;;;4974783;28;20187;-90
2024/03/12 09:56:06;;;;;;;13.77;9.68;;;9.20;99.90;;;;;;4971415;28;20197;-88
2024/03/12 09:58:33;;;;;;;13.77;10.27;;;9.20;99.90;;;;;;4974976;28;20176;-90
2024/03/12 10:01:02;;;;;;;12.55;9.43;;;9.20;99.90;;;;;;4974479;28;20203;-88
2024/03/12 10:03:35;;;;;;;16.25;10.05;;;9.30;99.90;;;;;;4972492;28;20177;-88
2024/03/12 10:06:02;;;;;;;13.63;9.30;;;9.30;99.90;;;;;;4976086;28;20216;-87
2024/03/12 10:08:28;;;;;;;16.10;10.10;;;9.30;99.90;;;;;;4975494;28;20195;-87
2024/03/12 10:10:55;;;;;;;15.90;9.95;;;9.40;99.90;;;;;;4993826;28;20239;-87
2024/03/12 10:13:21;;;;;;;12.63;9.63;;;9.50;99.90;;;;;;4979021;28;20191;-86
2024/03/12 10:15:50;;;;;;;15.65;10.38;;;9.40;99.90;;;;;;4979585;28;20187;-87
2024/03/12 10:18:16;;;;;;;13.15;9.73;;;9.50;99.90;;;;;;4995069;28;20187;-86
2024/03/12 10:20:54;;;;;;;16.40;9.82;;;9.60;99.90;;;;;;4985130;28;20232;-86
2024/03/12 10:23:21;;;;;;;13.82;9.68;;;9.70;99.90;;;;;;5004427;28;20174;-86
2024/03/12 10:26:09;;;;;;;14.40;10.15;;;9.70;99.90;;;;;;5001854;28;20651;-86
2024/03/12 10:28:36;;;;;;;14.93;9.65;;;9.70;99.90;;;;;;4994929;28;20222;-86
2024/03/12 10:31:10;;;;;;;14.60;10.20;;;9.60;99.90;;;;;;4991817;28;20192;-86
2024/03/12 10:33:37;;;;;;;14.82;10.15;;;9.50;99.90;;;;;;4988350;28;20223;-86
2024/03/12 10:36:04;;;;;;;13.40;9.38;;;9.50;99.90;;;;;;4985389;28;20192;-87
2024/03/12 10:38:33;;;;;;;13.90;9.90;;;9.50;99.90;;;;;;4998217;28;20188;-84
2024/03/12 10:41:18;;;;;;;12.27;9.40;;;9.50;99.90;;;;;;5000262;28;20184;-86
2024/03/12 10:43:45;;;;;;;14.05;10.45;;;9.60;99.90;;;;;;4983492;28;20194;-86
2024/03/12 10:46:17;;;;;;;19.97;11.37;;;9.60;99.90;;;;;;4981151;28;20675;-87
2024/03/12 10:48:47;;;;;;;15.60;11.43;;;9.60;99.90;;;;;;4981347;28;20176;-86
2024/03/12 10:51:14;;;;;;;14.52;10.48;;;9.70;99.90;;;;;;4981475;28;20203;-87
2024/03/12 10:53:42;;;;;;;17.13;11.23;;;9.70;99.90;;;;;;4981468;28;20204;-87
2024/03/12 10:56:11;;;;;;;19.63;12.05;;;9.80;99.90;;;;;;4981327;28;20218;-87
2024/03/12 10:58:37;;;;;;;17.85;11.60;;;10.00;99.90;;;;;;4981358;28;20248;-88
2024/03/12 11:01:09;;;;;;;19.92;12.77;;;10.20;99.90;;;;;;4998636;28;20168;-87
2024/03/12 11:03:35;;;;;;;19.25;13.27;;;10.30;99.90;;;;;;4998446;28;20168;-87
2024/03/12 11:06:03;;;;;;;18.77;13.63;;;10.50;99.90;;;;;;4980528;28;20239;-88
2024/03/12 11:08:29;;;;;;;19.17;12.40;;;10.50;99.90;;;;;;4997856;28;20156;-87
2024/03/12 11:10:56;;;;;;;18.80;13.30;;;10.40;99.90;;;;;;4997696;28;20551;-86
2024/03/12 11:13:23;;;;;;;17.70;13.25;;;10.40;99.90;;;;;;4978836;28;20206;-88
2024/03/12 11:15:49;;;;;;;20.15;14.43;;;10.30;99.90;;;;;;4997497;28;20176;-88
2024/03/12 11:18:34;;;;;;;20.58;15.00;;;10.20;99.90;;;;;;4996985;28;20703;-86
2024/03/12 11:20:59;;;;;;;24.77;16.13;;;10.20;99.90;;;;;;4980593;28;20615;-86
2024/03/12 11:23:28;;;;;;;24.17;16.73;;;10.30;99.90;;;;;;4997713;28;20183;-87
2024/03/12 11:25:57;;;;;;;22.08;16.63;;;10.40;99.90;;;;;;4979779;28;20230;-87
2024/03/12 11:28:26;;;;;;;21.98;15.10;;;10.40;99.90;;;;;;4980337;28;20227;-87
2024/03/12 11:30:55;;;;;;;24.83;16.13;;;10.40;99.90;;;;;;4998083;28;20674;-87
2024/03/12 11:33:45;;;;;;;25.27;16.58;;;10.30;99.90;;;;;;4980724;28;20187;-88
2024/03/12 11:36:39;;;;;;;23.20;16.42;;;10.20;99.90;;;;;;4980599;28;20176;-86
2024/03/12 11:39:23;;;;;;;27.42;16.90;;;10.30;99.90;;;;;;4980443;28;20180;-87
2024/03/12 11:42:10;;;;;;;26.80;17.70;;;10.30;99.90;;;;;;4980668;28;20180;-87
2024/03/12 11:45:03;;;;;;;23.80;16.80;;;10.20;99.90;;;;;;4998079;28;20630;-88
2024/03/12 11:47:42;;;;;;;21.73;15.63;;;10.20;99.90;;;;;;4976230;28;20687;-87
2024/03/12 11:50:32;;;;;;;22.38;16.52;;;10.40;99.90;;;;;;4980726;28;20172;-87
2024/03/12 11:53:23;;;;;;;22.08;15.77;;;10.40;99.90;;;;;;4980392;28;20183;-88
2024/03/12 11:56:10;;;;;;;24.10;16.02;;;10.40;99.90;;;;;;4980329;28;20693;-87
2024/03/12 11:58:46;;;;;;;22.83;14.80;;;10.40;99.90;;;;;;4980306;28;20255;-86
2024/03/12 12:01:30;;;;;;;26.25;16.20;;;10.40;99.90;;;;;;4997642;28;20156;-86
2024/03/12 12:03:59;;;;;;;22.00;16.20;;;10.30;99.90;;;;;;4987749;28;20494;-85
2024/03/12 12:06:30;;;;;;;20.85;15.23;;;10.30;99.90;;;;;;5000057;28;20218;-86
2024/03/12 12:08:56;;;;;;;23.40;15.85;;;10.30;99.90;;;;;;4998877;28;20184;-86
2024/03/12 12:11:23;;;;;;;24.08;15.95;;;10.20;99.90;;;;;;4999032;28;20206;-87
2024/03/12 12:13:55;;;;;;;23.85;16.20;;;10.10;99.90;;;;;;4999275;28;20171;-87
2024/03/12 12:16:20;;;;;;;21.45;14.98;;;10.10;99.90;;;;;;5016931;28;20206;-88
2024/03/12 12:18:47;;;;;;;23.92;14.90;;;10.00;99.90;;;;;;4991812;28;20192;-87
2024/03/12 12:21:16;;;;;;;21.65;13.45;;;10.00;99.90;;;;;;4979828;28;20227;-86
2024/03/12 12:23:46;;;;;;;25.55;14.90;;;9.90;99.90;;;;;;4979944;28;20180;-86
2024/03/12 12:26:20;;;;;;;21.83;14.23;;;9.80;99.90;;;;;;4996567;28;20242;-86
2024/03/12 12:28:48;;;;;;;24.73;15.15;;;9.80;99.90;;;;;;4979274;28;20591;-87
2024/03/12 12:31:19;;;;;;;20.75;14.07;;;9.80;99.90;;;;;;4979115;28;20204;-86
2024/03/12 12:33:50;;;;;;;23.17;15.02;;;9.70;99.90;;;;;;4979326;28;20491;-87
2024/03/12 12:36:21;;;;;;;20.73;13.68;;;9.70;99.90;;;;;;4996789;28;20649;-86
2024/03/12 12:38:49;;;;;;;23.92;15.00;;;9.70;99.90;;;;;;4979441;28;20618;-86
2024/03/12 12:41:42;;;;;;;24.23;15.27;;;9.70;99.90;;;;;;4983352;28;20250;-90
2024/03/12 12:44:12;;;;;;;25.42;16.33;;;9.70;99.90;;;;;;5010565;28;20172;-90
2024/03/12 12:46:40;;;;;;;23.55;14.50;;;9.80;99.90;;;;;;4989530;28;20555;-90
2024/03/12 12:49:06;;;;;;;25.08;16.05;;;9.90;99.90;;;;;;4984815;28;20184;-93
2024/03/12 12:51:31;;;;;;;23.63;14.80;;;10.10;99.90;;;;;;4996674;28;20233;-90
2024/03/12 12:54:04;;;;;;;26.35;16.50;;;10.10;99.90;;;;;;4978474;28;20218;-90
2024/03/12 12:56:41;;;;;;;23.85;15.48;;;10.20;99.90;;;;;;4981981;28;20187;-87
2024/03/12 12:59:14;;;;;;;25.63;15.15;;;10.20;99.90;;;;;;4980699;28;20274;-90
2024/03/12 13:01:40;;;;;;;26.15;15.95;;;10.30;99.90;;;;;;4978250;28;20522;-92
2024/03/12 13:04:23;;;;;;;32.22;16.13;;;10.30;99.90;;;;;;4994826;28;20190;-90